Time;durP1;ratioP1;P1;durP2;ratioP2;P2;SDS_P1;SDS_P2;PMS_P1;PMS_P2;Temp;Humidity;BMP_temperature;BMP_pressure;BME280_temperature;BME280_humidity;BME280_pressure;Samples;Min_cycle;Max_cycle;Signal;HPM_P1;HPM_P2
2022/12/24 00:00:48;;;;;;;18.00;13.75;;;3.40;99.90;;;;;;5073968;28;20020;-81
2022/12/24 00:03:33;;;;;;;18.20;12.85;;;3.40;99.90;;;;;;5100233;28;20098;-80
2022/12/24 00:06:02;;;;;;;21.67;14.45;;;3.40;99.90;;;;;;5094884;28;20028;-81
2022/12/24 00:08:28;;;;;;;17.58;12.93;;;3.30;99.90;;;;;;5092056;28;20405;-81
2022/12/24 00:11:14;;;;;;;16.00;11.43;;;3.30;99.90;;;;;;5070267;28;20070;-82
2022/12/24 00:13:39;;;;;;;17.55;10.65;;;3.40;99.90;;;;;;5095216;28;20020;-82
2022/12/24 00:16:06;;;;;;;17.30;12.40;;;3.40;99.90;;;;;;5096713;28;20473;-80
2022/12/24 00:18:50;;;;;;;17.67;12.18;;;3.30;99.90;;;;;;5078665;28;20024;-80
2022/12/24 00:21:35;;;;;;;18.40;11.30;;;3.30;99.90;;;;;;5095624;28;20111;-83
2022/12/24 00:24:04;;;;;;;17.92;11.77;;;3.30;99.90;;;;;;5075474;28;20509;-82
2022/12/24 00:27:07;;;;;;;17.17;13.75;;;3.30;99.90;;;;;;5089763;28;20031;-82
2022/12/24 00:29:33;;;;;;;18.17;12.77;;;3.30;99.90;;;;;;5099041;28;20450;-80
2022/12/24 00:31:59;;;;;;;19.73;13.27;;;3.30;99.90;;;;;;5112824;28;20106;-81
2022/12/24 00:34:25;;;;;;;17.90;11.68;;;3.30;99.90;;;;;;5109888;28;20024;-81
2022/12/24 00:36:51;;;;;;;18.60;12.93;;;3.30;99.90;;;;;;5095550;28;20024;-82
2022/12/24 00:39:36;;;;;;;15.93;11.48;;;3.40;99.90;;;;;;5094626;28;20092;-83
2022/12/24 00:42:39;;;;;;;17.23;12.77;;;3.40;99.90;;;;;;5101020;28;20154;-83
2022/12/24 00:45:25;;;;;;;20.35;13.13;;;3.30;99.90;;;;;;5099364;28;20534;-83
2022/12/24 00:47:51;;;;;;;21.85;13.00;;;3.30;99.90;;;;;;5090289;28;20396;-83
2022/12/24 00:50:54;;;;;;;17.45;13.52;;;3.30;99.90;;;;;;5092586;28;20047;-83
2022/12/24 00:53:39;;;;;;;19.30;14.27;;;3.30;99.90;;;;;;5086513;28;20074;-83
2022/12/24 00:56:05;;;;;;;21.38;12.98;;;3.30;99.90;;;;;;5099303;28;20028;-82
2022/12/24 00:58:31;;;;;;;21.92;14.73;;;3.30;99.90;;;;;;5095845;28;20103;-81
2022/12/24 01:00:57;;;;;;;19.27;14.57;;;3.30;99.90;;;;;;5094368;28;20095;-83
2022/12/24 01:03:33;;;;;;;21.85;15.88;;;3.30;99.90;;;;;;5096191;28;20028;-82
2022/12/24 01:06:01;;;;;;;19.02;13.30;;;3.30;99.90;;;;;;5094665;28;20103;-82
2022/12/24 01:08:27;;;;;;;20.40;15.20;;;3.30;99.90;;;;;;5094050;28;20059;-82
2022/12/24 01:11:12;;;;;;;22.00;15.27;;;3.30;99.90;;;;;;5093299;28;20028;-82
2022/12/24 01:13:59;;;;;;;23.40;15.32;;;3.30;99.90;;;;;;5094745;28;20106;-84
2022/12/24 01:16:46;;;;;;;19.85;11.43;;;3.40;99.90;;;;;;5088101;28;20027;-82
2022/12/24 01:19:30;;;;;;;;;;;3.30;99.90;;;;;;5091337;28;20365;-83
2022/12/24 01:22:15;;;;;;;24.08;15.27;;;3.30;99.90;;;;;;5092790;28;19949;-82
2022/12/24 01:24:41;;;;;;;23.02;15.52;;;3.20;99.90;;;;;;5100922;28;20478;-83
2022/12/24 01:27:08;;;;;;;25.93;18.73;;;3.20;99.90;;;;;;5088596;28;20488;-83
2022/12/24 01:29:52;;;;;;;24.90;16.88;;;3.20;99.90;;;;;;5077801;28;20287;-84
2022/12/24 01:32:21;;;;;;;21.95;15.38;;;3.20;99.90;;;;;;5092271;28;20072;-83
2022/12/24 01:35:05;;;;;;;25.27;17.83;;;3.20;99.90;;;;;;5092317;28;20024;-82
2022/12/24 01:38:10;;;;;;;27.10;17.35;;;3.30;99.90;;;;;;5111248;28;20054;-82
2022/12/24 01:43:42;;;;;;;25.52;18.25;;;3.20;99.90;;;;;;5113559;28;20031;-81
2022/12/24 01:46:30;;;;;;;23.83;16.00;;;3.20;99.90;;;;;;5098909;28;20019;-83
2022/12/24 01:49:15;;;;;;;26.42;16.33;;;3.20;99.90;;;;;;5099867;28;20039;-81
2022/12/24 01:52:02;;;;;;;26.40;18.10;;;3.30;99.90;;;;;;5100713;28;20095;-81
2022/12/24 01:54:41;;;;;;;24.20;15.32;;;3.30;99.90;;;;;;5103427;28;20020;-81
2022/12/24 01:57:20;;;;;;;21.08;14.43;;;3.30;99.90;;;;;;5093871;28;20038;-83
2022/12/24 02:00:05;;;;;;;27.05;18.52;;;3.20;99.90;;;;;;5109366;28;20015;-82
2022/12/24 02:02:32;;;;;;;25.73;17.17;;;3.30;99.90;;;;;;5109861;28;20032;-81
2022/12/24 02:05:19;;;;;;;24.23;17.75;;;3.30;99.90;;;;;;5089210;28;20074;-83
2022/12/24 02:08:03;;;;;;;27.27;16.70;;;3.30;99.90;;;;;;5093532;28;20020;-82
2022/12/24 02:10:48;;;;;;;24.95;17.35;;;3.40;99.90;;;;;;5095580;28;20023;-81
2022/12/24 02:13:17;;;;;;;25.42;16.45;;;3.30;99.90;;;;;;5117040;28;20468;-82
2022/12/24 02:16:15;;;;;;;21.13;16.48;;;3.40;99.90;;;;;;5112559;28;20088;-82
2022/12/24 02:19:03;;;;;;;24.75;17.10;;;3.40;99.90;;;;;;5104957;28;20586;-84
2022/12/24 02:22:07;;;;;;;28.20;18.00;;;3.40;99.90;;;;;;5105870;28;20042;-82
2022/12/24 02:25:12;;;;;;;21.90;14.93;;;3.40;99.90;;;;;;5069389;28;20181;-82
2022/12/24 02:27:47;;;;;;;24.27;15.68;;;3.40;99.90;;;;;;5111301;28;20039;-82
2022/12/24 02:30:39;;;;;;;23.80;15.15;;;3.40;99.90;;;;;;5096870;28;20077;-83
2022/12/24 02:33:24;;;;;;;25.83;15.63;;;3.40;99.90;;;;;;5110673;28;20024;-80
2022/12/24 02:36:05;;;;;;;24.88;16.05;;;3.40;99.90;;;;;;5078174;28;20020;-80
2022/12/24 02:38:32;;;;;;;27.85;16.40;;;3.40;99.90;;;;;;5122650;28;20023;-80
2022/12/24 02:42:04;;;;;;;22.52;16.50;;;3.40;99.90;;;;;;5087370;28;20031;-82
2022/12/24 02:44:18;;;;;;;26.40;15.88;;;3.50;99.90;;;;;;5110821;28;20401;-81
2022/12/24 02:46:44;;;;;;;27.73;17.88;;;3.40;99.90;;;;;;5112375;28;20031;-82
2022/12/24 02:49:29;;;;;;;21.02;16.60;;;3.50;99.90;;;;;;5110661;28;20035;-83
2022/12/24 02:52:13;;;;;;;24.23;16.80;;;3.50;99.90;;;;;;5109021;28;20019;-83
2022/12/24 02:54:39;;;;;;;21.92;15.63;;;3.50;99.90;;;;;;5081461;28;20027;-82
2022/12/24 02:57:32;;;;;;;26.60;17.75;;;3.50;99.90;;;;;;5104939;28;20032;-84
2022/12/24 03:00:18;;;;;;;22.73;15.43;;;3.50;99.90;;;;;;5104525;28;20024;-82
2022/12/24 03:03:06;;;;;;;25.30;16.85;;;3.50;99.90;;;;;;5099762;28;20024;-81
2022/12/24 03:06:09;;;;;;;27.33;17.45;;;3.50;99.90;;;;;;5099316;28;20353;-82
2022/12/24 03:09:13;;;;;;;25.85;16.15;;;3.60;99.90;;;;;;5093993;28;20042;-81
2022/12/24 03:11:47;;;;;;;27.30;16.88;;;3.50;99.90;;;;;;5089021;28;20020;-82
2022/12/24 03:14:50;;;;;;;28.63;16.55;;;3.50;99.90;;;;;;5104149;28;20081;-82
2022/12/24 03:17:17;;;;;;;27.27;16.90;;;3.50;99.90;;;;;;5098140;28;20028;-82
2022/12/24 03:20:02;;;;;;;29.73;19.20;;;3.50;99.90;;;;;;5118720;28;20103;-82
2022/12/24 03:22:30;;;;;;;23.92;16.75;;;3.50;99.90;;;;;;5103215;28;20023;-81
2022/12/24 03:25:15;;;;;;;22.58;16.88;;;3.50;99.90;;;;;;5103275;28;20035;-81
2022/12/24 03:27:42;;;;;;;28.35;18.05;;;3.50;99.90;;;;;;5100316;28;20063;-81
2022/12/24 03:30:28;;;;;;;24.23;15.77;;;3.50;99.90;;;;;;5103178;28;20059;-81
2022/12/24 03:32:54;;;;;;;26.60;18.73;;;3.50;99.90;;;;;;5091475;28;20103;-82
2022/12/24 03:35:39;;;;;;;24.80;16.30;;;3.40;99.90;;;;;;5097558;28;20020;-81
2022/12/24 03:38:42;;;;;;;29.80;17.52;;;3.40;99.90;;;;;;5093124;28;20111;-82
2022/12/24 03:41:09;;;;;;;24.40;16.33;;;3.40;99.90;;;;;;5107484;28;20374;-81
2022/12/24 03:43:54;;;;;;;28.15;18.75;;;3.30;99.90;;;;;;5105700;28;20027;-82
2022/12/24 03:46:19;;;;;;;24.48;18.05;;;3.30;99.90;;;;;;5113915;28;20027;-83
2022/12/24 03:49:04;;;;;;;27.70;16.05;;;3.30;99.90;;;;;;5113007;28;20142;-82
2022/12/24 03:52:07;;;;;;;24.13;14.23;;;3.30;99.90;;;;;;5104567;28;20023;-81
2022/12/24 03:54:33;;;;;;;18.88;11.18;;;3.30;99.90;;;;;;5101847;28;20024;-81
2022/12/24 03:56:59;;;;;;;27.83;17.50;;;3.10;99.90;;;;;;5112048;28;20027;-81
2022/12/24 03:59:26;;;;;;;25.42;16.70;;;3.00;99.90;;;;;;5110680;28;20024;-81
2022/12/24 04:02:11;;;;;;;28.73;17.17;;;3.00;99.90;;;;;;5102991;28;20078;-82
2022/12/24 04:04:37;;;;;;;25.67;15.57;;;3.00;99.90;;;;;;5092917;28;20059;-83
2022/12/24 04:07:22;;;;;;;22.92;14.70;;;2.90;99.90;;;;;;5112713;28;20437;-84
2022/12/24 04:10:25;;;;;;;27.33;16.88;;;2.90;99.90;;;;;;5109875;28;20476;-82
2022/12/24 04:13:09;;;;;;;26.67;17.75;;;2.90;99.90;;;;;;5107369;28;20032;-82
2022/12/24 04:15:58;;;;;;;25.60;15.38;;;2.90;99.90;;;;;;5089769;28;20510;-82
2022/12/24 04:18:42;;;;;;;25.55;16.05;;;2.90;99.90;;;;;;5115070;28;20012;-82
2022/12/24 04:21:27;;;;;;;23.85;16.30;;;2.80;99.90;;;;;;5103424;28;20028;-84
2022/12/24 04:23:52;;;;;;;27.63;16.55;;;2.80;99.90;;;;;;5102841;28;20040;-83
2022/12/24 04:26:18;;;;;;;29.50;16.98;;;2.80;99.90;;;;;;5085246;28;20485;-83
2022/12/24 04:29:21;;;;;;;26.70;15.77;;;2.70;99.90;;;;;;5100811;28;20040;-83
2022/12/24 04:31:47;;;;;;;30.85;18.35;;;2.70;99.90;;;;;;5105162;28;20023;-82
2022/12/24 04:34:13;;;;;;;27.23;15.95;;;2.70;99.90;;;;;;5083759;28;20030;-82
2022/12/24 04:36:39;;;;;;;25.60;17.40;;;2.70;99.90;;;;;;5102000;28;20042;-83
2022/12/24 04:39:23;;;;;;;28.27;18.08;;;2.60;99.90;;;;;;5104800;28;20436;-83
2022/12/24 04:41:49;;;;;;;27.42;17.23;;;2.60;99.90;;;;;;5115183;28;20026;-83
2022/12/24 04:44:34;;;;;;;31.35;19.15;;;2.60;99.90;;;;;;5117329;28;20425;-81
2022/12/24 04:47:37;;;;;;;26.85;17.10;;;2.60;99.90;;;;;;5128067;28;20028;-82
2022/12/24 04:50:40;;;;;;;28.38;13.90;;;2.60;99.90;;;;;;5092680;28;20043;-83
2022/12/24 04:53:05;;;;;;;26.05;17.90;;;2.50;99.90;;;;;;5091693;28;20055;-82
2022/12/24 04:55:50;;;;;;;28.73;15.75;;;2.50;99.90;;;;;;5112491;28;20047;-82
2022/12/24 04:58:35;;;;;;;28.67;17.90;;;2.60;99.90;;;;;;5094608;28;20020;-81
2022/12/24 05:01:38;;;;;;;33.70;20.95;;;2.60;99.90;;;;;;5125571;28;20027;-85
2022/12/24 05:04:05;;;;;;;27.00;16.65;;;2.60;99.90;;;;;;5096142;28;20080;-82
2022/12/24 05:06:32;;;;;;;29.80;18.10;;;2.60;99.90;;;;;;5113688;28;20024;-84
2022/12/24 05:09:17;;;;;;;26.90;17.92;;;2.50;99.90;;;;;;5103614;28;20043;-84
2022/12/24 05:12:01;;;;;;;32.92;18.75;;;2.50;99.90;;;;;;5112493;28;20016;-83
2022/12/24 05:14:48;;;;;;;29.70;18.20;;;2.50;99.90;;;;;;5105420;28;20410;-83
2022/12/24 05:17:14;;;;;;;;;;;2.50;99.90;;;;;;5107025;28;20023;-83
2022/12/24 05:20:17;;;;;;;24.95;15.23;;;2.50;99.90;;;;;;5102530;28;19914;-84
2022/12/24 05:26:23;;;;;;;32.50;19.70;;;2.50;99.90;;;;;;5073286;28;20051;-84
2022/12/24 05:28:56;;;;;;;33.95;19.88;;;2.50;99.90;;;;;;5068720;28;20098;-85
2022/12/24 05:31:24;;;;;;;29.35;19.15;;;2.60;99.90;;;;;;5073230;28;20055;-82
2022/12/24 05:34:27;;;;;;;32.80;19.17;;;2.60;99.90;;;;;;5073725;28;20044;-83
2022/12/24 05:36:53;;;;;;;33.40;19.95;;;2.70;99.90;;;;;;5073895;28;20020;-82
2022/12/24 05:39:38;;;;;;;31.42;19.40;;;2.70;99.90;;;;;;5073359;28;20035;-82
2022/12/24 05:42:22;;;;;;;29.40;20.10;;;2.70;99.90;;;;;;5072929;28;20024;-83
2022/12/24 05:45:25;;;;;;;33.08;18.95;;;2.70;99.90;;;;;;5062331;28;20382;-83
2022/12/24 05:48:10;;;;;;;29.90;19.77;;;2.70;99.90;;;;;;5069397;28;20032;-83
2022/12/24 05:51:13;;;;;;;31.17;15.95;;;2.70;99.90;;;;;;5072786;28;20034;-85
2022/12/24 05:53:57;;;;;;;33.25;18.48;;;2.70;99.90;;;;;;5073127;28;20099;-84
2022/12/24 05:56:42;;;;;;;29.27;17.25;;;2.60;99.90;;;;;;5063314;28;20023;-82
2022/12/24 05:59:45;;;;;;;31.48;20.33;;;2.60;99.90;;;;;;5068123;28;20492;-82
2022/12/24 06:02:29;;;;;;;29.35;19.77;;;2.60;99.90;;;;;;5054657;28;20035;-84
2022/12/24 06:04:55;;;;;;;31.27;20.55;;;2.60;99.90;;;;;;5072905;28;20017;-85
2022/12/24 06:07:24;;;;;;;29.10;17.30;;;2.70;99.90;;;;;;5071616;28;20046;-83
2022/12/24 06:10:09;;;;;;;25.90;17.65;;;2.70;99.90;;;;;;5054964;28;20046;-84
2022/12/24 06:13:12;;;;;;;22.33;13.50;;;2.70;99.90;;;;;;5066597;28;20104;-84
2022/12/24 06:15:57;;;;;;;24.33;15.48;;;2.60;99.90;;;;;;5054929;28;20016;-84
2022/12/24 06:18:23;;;;;;;28.63;19.55;;;2.60;99.90;;;;;;5072712;28;20126;-83
2022/12/24 06:21:08;;;;;;;23.35;15.18;;;2.60;99.90;;;;;;5064434;28;20114;-83
2022/12/24 06:24:11;;;;;;;27.02;18.15;;;2.60;99.90;;;;;;5076655;28;20111;-82
2022/12/24 06:26:56;;;;;;;24.23;16.23;;;2.60;99.90;;;;;;5100786;28;20476;-82
2022/12/24 06:29:40;;;;;;;29.55;17.98;;;2.60;99.90;;;;;;5084682;28;20050;-82
2022/12/24 06:32:06;;;;;;;26.98;16.33;;;2.60;99.90;;;;;;5093536;28;20484;-81
2022/12/24 06:34:50;;;;;;;24.83;16.65;;;2.60;99.90;;;;;;5100854;28;20027;-84
2022/12/24 06:37:35;;;;;;;28.08;16.65;;;2.60;99.90;;;;;;5106013;28;20012;-82
2022/12/24 06:40:20;;;;;;;25.13;17.88;;;2.60;99.90;;;;;;5113094;28;20042;-84
2022/12/24 06:42:48;;;;;;;26.35;17.77;;;2.70;99.90;;;;;;5085179;28;20016;-83
2022/12/24 06:45:14;;;;;;;28.83;17.95;;;2.70;99.90;;;;;;5098714;28;20036;-83
2022/12/24 06:47:59;;;;;;;31.27;19.25;;;2.70;99.90;;;;;;5103184;28;20480;-84
2022/12/24 06:50:44;;;;;;;27.77;17.27;;;2.80;99.90;;;;;;5105323;28;20020;-86
2022/12/24 06:53:28;;;;;;;26.33;16.70;;;2.70;99.90;;;;;;5102570;28;20026;-81
2022/12/24 06:56:05;;;;;;;30.75;16.40;;;2.70;99.90;;;;;;5101096;28;20034;-83
2022/12/24 06:58:32;;;;;;;39.35;19.27;;;2.70;99.90;;;;;;5088526;28;20152;-83
2022/12/24 07:01:18;;;;;;;31.38;20.63;;;2.60;99.90;;;;;;5104514;28;20046;-84
2022/12/24 07:03:44;;;;;;;31.42;18.80;;;2.60;99.90;;;;;;5106291;28;20031;-83
2022/12/24 07:06:29;;;;;;;31.92;21.30;;;2.60;99.90;;;;;;5105888;28;20047;-83
2022/12/24 07:08:55;;;;;;;29.65;19.38;;;2.60;99.90;;;;;;5102184;28;20032;-83
2022/12/24 07:11:24;;;;;;;34.03;19.25;;;2.60;99.90;;;;;;5101391;28;20040;-85
2022/12/24 07:14:08;;;;;;;34.17;20.42;;;2.60;99.90;;;;;;5077688;28;20099;-82
2022/12/24 07:16:57;;;;;;;37.75;22.55;;;2.60;99.90;;;;;;5098288;28;20020;-83
2022/12/24 07:19:23;;;;;;;36.55;22.58;;;2.60;99.90;;;;;;5096445;28;20078;-81
2022/12/24 07:22:26;;;;;;;39.72;23.42;;;2.60;99.90;;;;;;5087770;28;20051;-83
2022/12/24 07:25:11;;;;;;;32.22;19.13;;;2.60;99.90;;;;;;5084179;28;20098;-82
2022/12/24 07:27:37;;;;;;;38.83;23.92;;;2.60;99.90;;;;;;5075699;28;20025;-84
2022/12/24 07:30:22;;;;;;;33.53;20.92;;;2.50;99.90;;;;;;5075922;28;20806;-83
2022/12/24 07:33:07;;;;;;;38.30;22.73;;;2.50;99.90;;;;;;5075357;28;20017;-83
2022/12/24 07:35:54;;;;;;;35.45;22.88;;;2.50;99.90;;;;;;5062322;28;20503;-83
2022/12/24 07:38:40;;;;;;;35.13;19.35;;;2.60;99.90;;;;;;5075234;28;20474;-83
2022/12/24 07:41:43;;;;;;;28.85;17.27;;;2.60;99.90;;;;;;5087544;28;20657;-85
2022/12/24 07:44:27;;;;;;;37.13;21.35;;;2.60;99.90;;;;;;5057818;28;20017;-86
2022/12/24 07:46:53;;;;;;;32.35;19.70;;;2.60;99.90;;;;;;5075153;28;20056;-83
2022/12/24 07:49:38;;;;;;;28.75;18.40;;;2.60;99.90;;;;;;5073680;28;20059;-85
2022/12/24 07:52:04;;;;;;;38.60;20.52;;;2.60;99.90;;;;;;5075587;28;20043;-83
2022/12/24 07:54:30;;;;;;;32.85;20.20;;;2.60;99.90;;;;;;5074681;28;20052;-84
2022/12/24 07:57:14;;;;;;;28.63;14.70;;;2.60;99.90;;;;;;5071724;28;20389;-85
2022/12/24 07:59:40;;;;;;;37.50;21.83;;;2.60;99.90;;;;;;5074980;28;20020;-84
2022/12/24 08:02:31;;;;;;;30.35;20.80;;;2.50;99.90;;;;;;5078532;28;20028;-83
2022/12/24 08:04:59;;;;;;;29.38;18.30;;;2.60;99.90;;;;;;5072477;28;20127;-81
2022/12/24 08:07:25;;;;;;;28.35;18.45;;;2.60;99.90;;;;;;5075533;28;20071;-83
2022/12/24 08:10:10;;;;;;;33.05;19.00;;;2.60;99.90;;;;;;5073459;28;20102;-84
2022/12/24 08:12:54;;;;;;;27.85;16.55;;;2.60;99.90;;;;;;5075644;28;20027;-83
2022/12/24 08:15:20;;;;;;;29.20;15.55;;;2.60;99.90;;;;;;5054595;28;20066;-84
2022/12/24 08:17:46;;;;;;;30.35;19.35;;;2.60;99.90;;;;;;5076147;28;20024;-82
2022/12/24 08:20:12;;;;;;;31.30;18.67;;;2.60;99.90;;;;;;5081817;28;20047;-84
2022/12/24 08:22:56;;;;;;;31.13;17.80;;;2.60;99.90;;;;;;5084362;28;20071;-84
2022/12/24 08:25:25;;;;;;;32.88;19.10;;;2.70;99.90;;;;;;5076079;28;20107;-84
2022/12/24 08:28:13;;;;;;;26.40;14.30;;;2.60;99.90;;;;;;5074768;28;20025;-84
2022/12/24 08:31:18;;;;;;;25.48;15.27;;;2.60;99.90;;;;;;5068010;28;20484;-85
2022/12/24 08:34:12;;;;;;;24.58;16.73;;;2.60;99.90;;;;;;5067585;28;20362;-84
2022/12/24 08:40:21;;;;;;;23.15;14.00;;;2.50;99.90;;;;;;5066538;28;20031;-86
2022/12/24 08:43:05;;;;;;;22.17;12.82;;;2.50;99.90;;;;;;5074754;28;20055;-84
2022/12/24 08:45:31;;;;;;;18.20;13.07;;;2.40;99.90;;;;;;5074960;28;20035;-85
2022/12/24 08:48:34;;;;;;;23.10;12.82;;;2.40;99.90;;;;;;5073101;28;20040;-83
2022/12/24 08:51:04;;;;;;;22.38;13.85;;;2.20;99.90;;;;;;5072764;28;20115;-85
2022/12/24 08:53:32;;;;;;;23.42;13.57;;;2.20;99.90;;;;;;5073867;28;20031;-83
2022/12/24 08:56:03;;;;;;;23.02;13.80;;;2.20;99.90;;;;;;5073499;28;20040;-79
2022/12/24 08:58:33;;;;;;;22.63;14.15;;;2.20;99.90;;;;;;5055839;28;20078;-81
2022/12/24 09:00:59;;;;;;;19.30;13.52;;;2.30;99.90;;;;;;5056303;28;20040;-81
2022/12/24 09:03:44;;;;;;;27.10;15.70;;;2.30;99.90;;;;;;5060740;28;20039;-81
2022/12/24 09:06:29;;;;;;;27.48;14.32;;;2.30;99.90;;;;;;5071020;28;20028;-80
2022/12/24 09:08:56;;;;;;;23.80;16.17;;;2.20;99.90;;;;;;5055485;28;20055;-80
2022/12/24 09:11:40;;;;;;;25.17;14.75;;;2.20;99.90;;;;;;5082928;28;20071;-79
2022/12/24 09:14:06;;;;;;;19.35;11.70;;;2.20;99.90;;;;;;5073478;28;20398;-79
2022/12/24 09:16:32;;;;;;;18.10;11.50;;;2.30;99.90;;;;;;5073389;28;20020;-80
2022/12/24 09:18:58;;;;;;;22.00;13.73;;;2.30;99.90;;;;;;5055427;28;20107;-81
2022/12/24 09:21:27;;;;;;;19.98;14.00;;;2.20;99.90;;;;;;5072108;28;20033;-80
2022/12/24 09:23:53;;;;;;;17.45;10.88;;;2.20;99.90;;;;;;5073142;28;20043;-82
2022/12/24 09:26:23;;;;;;;21.63;11.02;;;2.20;99.90;;;;;;5073094;28;20025;-81
2022/12/24 09:29:11;;;;;;;19.70;12.80;;;2.20;99.90;;;;;;5072177;28;20047;-81
2022/12/24 09:32:08;;;;;;;;;;;;;;;;;;;;;
2022/12/24 09:34:57;;;;;;;17.38;10.57;;;2.20;99.90;;;;;;5074268;28;20035;-82
2022/12/24 09:37:41;;;;;;;16.15;10.80;;;2.20;99.90;;;;;;5065202;28;20432;-82
2022/12/24 09:40:38;;;;;;;19.08;12.38;;;2.20;99.90;;;;;;5081706;28;20388;-81
2022/12/24 09:43:41;;;;;;;17.60;12.82;;;2.10;99.90;;;;;;5071795;28;20047;-83
2022/12/24 09:46:25;;;;;;;16.92;11.90;;;2.10;99.90;;;;;;5073276;28;20059;-83
2022/12/24 09:49:18;;;;;;;16.73;11.32;;;2.10;99.90;;;;;;5066754;28;20032;-81
2022/12/24 09:52:09;;;;;;;21.83;13.73;;;2.20;99.90;;;;;;5072504;28;20377;-81
2022/12/24 09:55:17;;;;;;;18.42;12.27;;;2.20;99.90;;;;;;5054640;28;20359;-80
2022/12/24 09:57:44;;;;;;;17.00;10.68;;;2.10;99.90;;;;;;5061050;28;20041;-81
2022/12/24 10:00:29;;;;;;;;;;;2.10;99.90;;;;;;5065762;28;20032;-79
2022/12/24 10:02:56;;;;;;;21.55;12.40;;;2.10;99.90;;;;;;5064811;28;20006;-77
2022/12/24 10:05:33;;;;;;;25.58;15.05;;;2.10;99.90;;;;;;5072871;28;20016;-80
2022/12/24 10:08:28;;;;;;;20.77;14.15;;;2.10;99.90;;;;;;5072161;28;20028;-79
2022/12/24 10:11:37;;;;;;;15.70;8.90;;;2.20;99.90;;;;;;5066002;28;20078;-80
2022/12/24 10:14:21;;;;;;;21.58;14.40;;;2.20;99.90;;;;;;5064433;28;20444;-80
2022/12/24 10:17:24;;;;;;;21.77;13.90;;;2.10;99.90;;;;;;5067544;28;20039;-80
2022/12/24 10:20:15;;;;;;;15.88;10.32;;;2.10;99.90;;;;;;5067097;28;20028;-81
2022/12/24 10:22:57;;;;;;;22.25;15.10;;;2.10;99.90;;;;;;5071866;28;20440;-80
2022/12/24 10:25:43;;;;;;;20.35;13.15;;;2.00;99.90;;;;;;5064470;28;20056;-80
2022/12/24 10:28:18;;;;;;;26.20;15.27;;;2.00;99.90;;;;;;5050954;28;20032;-80
2022/12/24 10:30:49;;;;;;;22.80;13.02;;;2.00;99.90;;;;;;5092740;28;20478;-80
2022/12/24 10:33:33;;;;;;;23.88;15.15;;;2.00;99.90;;;;;;5086751;28;20397;-82
2022/12/24 10:35:58;;;;;;;18.77;11.57;;;2.00;99.90;;;;;;5093883;28;20020;-80
2022/12/24 10:38:25;;;;;;;21.75;14.73;;;2.00;99.90;;;;;;5090965;28;20444;-86
2022/12/24 10:40:54;;;;;;;20.90;15.37;;;2.00;99.90;;;;;;5095239;28;20376;-87
2022/12/24 10:43:23;;;;;;;22.45;12.70;;;2.00;99.90;;;;;;5092372;28;20054;-86
2022/12/24 10:45:56;;;;;;;19.98;13.63;;;2.10;99.90;;;;;;5074236;28;20078;-79
2022/12/24 10:48:38;;;;;;;19.30;11.70;;;2.00;99.90;;;;;;5083913;28;20082;-78
2022/12/24 10:51:30;;;;;;;21.50;13.43;;;2.00;99.90;;;;;;5090864;28;20023;-81
2022/12/24 10:54:14;;;;;;;18.45;12.32;;;2.00;99.90;;;;;;5091630;28;20019;-77
2022/12/24 10:56:51;;;;;;;18.23;10.98;;;2.00;99.90;;;;;;5091641;28;20028;-81
2022/12/24 10:59:38;;;;;;;21.00;13.90;;;2.00;99.90;;;;;;5095106;28;20032;-80
2022/12/24 11:02:29;;;;;;;22.67;14.30;;;2.10;99.90;;;;;;5104699;28;20055;-81
2022/12/24 11:04:58;;;;;;;15.68;11.23;;;2.00;99.90;;;;;;5070238;28;20031;-81
2022/12/24 11:07:28;;;;;;;19.02;13.68;;;2.10;99.90;;;;;;5092001;28;20042;-79
2022/12/24 11:10:13;;;;;;;20.70;14.18;;;2.10;99.90;;;;;;5093012;28;20032;-79
2022/12/24 11:12:47;;;;;;;16.83;11.88;;;2.10;99.90;;;;;;5074942;28;20112;-81
2022/12/24 11:15:21;;;;;;;17.02;11.93;;;2.20;99.90;;;;;;5095872;28;20024;-80
2022/12/24 11:18:13;;;;;;;17.60;11.60;;;2.30;99.90;;;;;;5091633;28;20028;-81
2022/12/24 11:20:40;;;;;;;14.60;10.90;;;2.30;99.90;;;;;;5092171;28;20032;-81
2022/12/24 11:23:13;;;;;;;22.08;12.90;;;2.30;99.90;;;;;;5092208;28;20381;-81
2022/12/24 11:25:45;;;;;;;20.23;13.80;;;2.30;99.90;;;;;;5101564;28;20047;-81
2022/12/24 11:28:21;;;;;;;19.98;14.25;;;2.40;99.90;;;;;;5107010;28;20028;-81
2022/12/24 11:31:07;;;;;;;17.60;11.65;;;2.50;99.90;;;;;;5092902;28;20443;-81
2022/12/24 11:33:47;;;;;;;13.35;11.32;;;2.50;99.90;;;;;;5095943;28;20020;-80
2022/12/24 11:36:19;;;;;;;15.98;10.65;;;2.60;99.90;;;;;;5098483;28;20174;-82
2022/12/24 11:38:53;;;;;;;17.13;10.82;;;2.60;99.90;;;;;;5108442;28;20428;-83
2022/12/24 11:41:22;;;;;;;12.50;9.50;;;2.60;99.90;;;;;;5100577;28;20028;-82
2022/12/24 11:43:50;;;;;;;11.32;9.00;;;2.60;99.90;;;;;;5101947;28;20028;-80
2022/12/24 11:46:35;;;;;;;17.73;10.80;;;2.60;99.90;;;;;;5092071;28;20449;-82
2022/12/24 11:49:28;;;;;;;17.10;9.52;;;2.60;99.90;;;;;;5091623;28;20041;-82
2022/12/24 11:52:11;;;;;;;28.23;11.15;;;2.60;99.90;;;;;;5085124;28;20040;-82
2022/12/24 11:54:47;;;;;;;20.77;10.93;;;2.60;99.90;;;;;;5100785;28;20047;-82
2022/12/24 11:57:19;;;;;;;20.35;10.45;;;2.60;99.90;;;;;;5101423;28;20020;-83
2022/12/24 11:59:49;;;;;;;12.18;9.07;;;2.70;99.90;;;;;;5107204;28;20019;-81
2022/12/24 12:02:28;;;;;;;15.73;9.52;;;2.70;99.90;;;;;;5085610;28;20023;-81
2022/12/24 12:05:04;;;;;;;14.73;9.35;;;2.80;99.90;;;;;;5089344;28;20153;-81
2022/12/24 12:07:35;;;;;;;12.60;9.10;;;2.80;99.90;;;;;;5106460;28;20023;-82
2022/12/24 12:10:07;;;;;;;12.48;8.68;;;2.70;99.90;;;;;;5082826;28;20369;-82
2022/12/24 12:12:46;;;;;;;12.48;9.18;;;2.70;99.90;;;;;;5096256;28;20103;-82
2022/12/24 12:15:17;;;;;;;15.93;10.32;;;2.70;99.90;;;;;;5097511;28;20395;-82
2022/12/24 12:18:17;;;;;;;16.48;10.68;;;2.60;99.90;;;;;;5094847;28;20020;-79
2022/12/24 12:20:53;;;;;;;17.00;10.80;;;2.60;99.90;;;;;;5088390;28;20028;-82
2022/12/24 12:23:28;;;;;;;13.07;9.55;;;2.70;99.90;;;;;;5097195;28;20460;-83
2022/12/24 12:26:13;;;;;;;15.73;10.25;;;2.70;99.90;;;;;;5079494;28;20024;-82
2022/12/24 12:28:58;;;;;;;21.30;11.73;;;2.60;99.90;;;;;;5096254;28;20412;-82
2022/12/24 12:31:44;;;;;;;16.10;12.75;;;2.70;99.90;;;;;;5096569;28;20070;-82
2022/12/24 12:34:16;;;;;;;16.20;10.15;;;2.70;99.90;;;;;;5086929;28;20445;-79
2022/12/24 12:37:14;;;;;;;14.60;11.20;;;2.70;99.90;;;;;;5081468;28;20396;-80
2022/12/24 12:39:40;;;;;;;12.30;9.27;;;2.70;99.90;;;;;;5088817;28;20028;-81
2022/12/24 12:42:28;;;;;;;15.52;9.27;;;2.70;99.90;;;;;;5076287;28;20155;-80
2022/12/24 12:45:23;;;;;;;13.38;8.70;;;2.70;99.90;;;;;;5077219;28;20019;-82
2022/12/24 12:48:19;;;;;;;11.60;7.90;;;2.70;99.90;;;;;;5077510;28;20512;-84
2022/12/24 12:50:48;;;;;;;14.45;8.48;;;2.70;99.90;;;;;;5070593;28;20389;-78
2022/12/24 12:53:30;;;;;;;14.93;10.25;;;2.60;99.90;;;;;;5100920;28;20028;-81
2022/12/24 12:55:59;;;;;;;10.70;8.68;;;2.60;99.90;;;;;;5093391;28;20012;-84
2022/12/24 12:58:32;;;;;;;11.77;8.05;;;2.70;99.90;;;;;;5094409;28;20020;-84
2022/12/24 13:01:12;;;;;;;13.35;9.57;;;2.60;99.90;;;;;;5094422;28;20491;-82
2022/12/24 13:04:27;;;;;;;14.52;8.50;;;2.60;99.90;;;;;;5077233;28;20111;-84
2022/12/24 13:07:24;;;;;;;11.52;8.10;;;2.60;99.90;;;;;;5041201;28;20027;-81
2022/12/24 13:09:58;;;;;;;15.70;9.05;;;2.60;99.90;;;;;;5102888;28;20497;-79
2022/12/24 13:12:49;;;;;;;15.88;7.97;;;2.60;99.90;;;;;;5094053;28;20017;-81
2022/12/24 13:15:46;;;;;;;10.93;7.82;;;2.60;99.90;;;;;;5097415;28;20158;-80
2022/12/24 13:18:33;;;;;;;10.25;7.82;;;2.60;99.90;;;;;;5096101;28;20098;-81
2022/12/24 13:20:59;;;;;;;;;;;2.60;99.90;;;;;;5096989;28;20082;-79
2022/12/24 13:23:27;;;;;;;17.00;10.15;;;2.60;99.90;;;;;;5082478;28;20002;-81
2022/12/24 13:25:55;;;;;;;10.70;7.90;;;2.60;99.90;;;;;;5080589;28;20078;-82
2022/12/24 13:28:21;;;;;;;8.70;7.15;;;2.70;99.90;;;;;;5079882;28;20115;-79
2022/12/24 13:31:00;;;;;;;34.30;23.55;;;2.70;99.90;;;;;;5098479;28;20055;-83
2022/12/24 13:33:38;;;;;;;12.18;9.13;;;2.70;99.90;;;;;;5093829;28;20024;-83
2022/12/24 13:36:06;;;;;;;11.93;8.15;;;2.70;99.90;;;;;;5076064;28;20579;-80
2022/12/24 13:38:44;;;;;;;14.45;8.23;;;2.70;99.90;;;;;;5093209;28;20369;-80
2022/12/24 13:41:33;;;;;;;14.93;7.78;;;2.80;99.90;;;;;;5106242;28;20481;-82
2022/12/24 13:44:20;;;;;;;13.40;9.32;;;2.80;99.90;;;;;;5069672;28;20032;-81
2022/12/24 13:46:46;;;;;;;12.65;9.02;;;2.80;99.90;;;;;;5075230;28;20035;-83
2022/12/24 13:49:24;;;;;;;14.65;9.30;;;2.80;99.90;;;;;;5093280;28;20047;-81
2022/12/24 13:51:50;;;;;;;21.45;8.68;;;2.70;99.90;;;;;;5093558;28;20161;-80
2022/12/24 13:54:27;;;;;;;11.15;7.35;;;2.80;99.90;;;;;;5093456;28;20051;-81
2022/12/24 13:56:53;;;;;;;10.23;6.90;;;2.80;99.90;;;;;;5093988;28;20073;-81